createdAt,value
2017-01-16T00:00:47.387Z,18.15
2017-01-16T00:01:47.324Z,18.25
2017-01-16T00:02:47.262Z,18.15
2017-01-16T00:03:47.199Z,18.15
2017-01-16T00:04:47.137Z,18.34
2017-01-16T00:05:47.080Z,18.34
2017-01-16T00:06:47.017Z,18.15
2017-01-16T00:07:46.953Z,18.34
2017-01-16T00:08:46.889Z,18.25
2017-01-16T00:09:47.220Z,18.25
2017-01-16T00:10:46.765Z,18.25
2017-01-16T00:11:46.703Z,18.34
2017-01-16T00:12:46.641Z,18.15
2017-01-16T00:13:46.579Z,18.15
2017-01-16T00:14:46.516Z,18.25
2017-01-16T00:15:46.455Z,18.15
2017-01-16T00:16:46.391Z,18.25
2017-01-16T00:17:46.331Z,18.25
2017-01-16T00:18:46.270Z,18.25
2017-01-16T00:19:46.205Z,18.34
2017-01-16T00:20:46.146Z,18.25
2017-01-16T00:21:46.082Z,18.34
2017-01-16T00:22:46.018Z,18.25
2017-01-16T00:23:45.956Z,18.34
2017-01-16T00:24:45.900Z,18.34
2017-01-16T00:25:45.831Z,18.25
2017-01-16T00:26:45.770Z,18.15
2017-01-16T00:27:45.710Z,18.25
2017-01-16T00:28:45.649Z,18.34
2017-01-16T00:29:45.584Z,18.44
2017-01-16T00:30:45.521Z,18.15
2017-01-16T00:31:45.461Z,18.34
2017-01-16T00:32:45.399Z,18.25
2017-01-16T00:33:45.337Z,18.34
2017-01-16T00:34:45.273Z,18.34
2017-01-16T00:35:45.215Z,18.15
2017-01-16T00:36:45.148Z,18.15
2017-01-16T00:37:45.086Z,18.25
2017-01-16T00:38:45.028Z,18.34
2017-01-16T00:39:44.960Z,18.34
2017-01-16T00:40:44.900Z,18.15
2017-01-16T00:41:44.837Z,18.25
2017-01-16T00:42:44.776Z,18.25
2017-01-16T00:43:44.715Z,18.25
2017-01-16T00:44:44.652Z,18.34
2017-01-16T00:45:44.607Z,18.34
2017-01-16T00:46:44.531Z,18.25
2017-01-16T00:47:44.472Z,18.34
2017-01-16T00:48:44.407Z,18.25
2017-01-16T00:49:44.343Z,18.25
2017-01-16T00:50:44.279Z,18.05
2017-01-16T00:51:44.217Z,18.34
2017-01-16T00:52:44.154Z,18.34
2017-01-16T00:53:44.096Z,18.25
2017-01-16T00:54:44.029Z,18.34
2017-01-16T00:55:43.969Z,18.25
2017-01-16T00:56:43.905Z,18.34
2017-01-16T00:57:43.842Z,18.25
2017-01-16T00:58:43.781Z,18.25
2017-01-16T00:59:43.719Z,18.25
2017-01-16T01:01:12.540Z,18.44
2017-01-16T01:02:12.473Z,18.34
2017-01-16T01:03:12.400Z,18.25
2017-01-16T01:04:12.338Z,18.25
2017-01-16T01:05:12.279Z,18.34
2017-01-16T01:06:12.214Z,18.34
2017-01-16T01:07:12.153Z,18.25
2017-01-16T01:08:12.090Z,18.34
2017-01-16T01:09:12.029Z,18.34
2017-01-16T01:10:11.967Z,18.15
2017-01-16T01:11:11.907Z,18.34
2017-01-16T01:12:11.842Z,18.25
2017-01-16T01:13:11.779Z,18.25
2017-01-16T01:14:11.716Z,18.34
2017-01-16T01:15:11.652Z,18.25
2017-01-16T01:16:11.592Z,18.25
2017-01-16T01:17:11.921Z,18.44
2017-01-16T01:18:11.471Z,18.34
2017-01-16T01:19:11.405Z,18.34
2017-01-16T01:20:11.347Z,18.25
2017-01-16T01:21:11.282Z,18.25
2017-01-16T01:22:11.220Z,18.25
2017-01-16T01:23:11.157Z,18.25
2017-01-16T01:24:11.093Z,18.34
2017-01-16T01:25:11.031Z,18.15
2017-01-16T01:26:10.968Z,18.25
2017-01-16T01:27:10.904Z,18.15
2017-01-16T01:28:10.847Z,18.25
2017-01-16T01:29:10.781Z,18.25
2017-01-16T01:30:10.720Z,18.34
2017-01-16T01:31:10.659Z,18.25
2017-01-16T01:32:10.595Z,18.15
2017-01-16T01:33:10.531Z,18.25
2017-01-16T01:34:10.470Z,18.34
2017-01-16T01:35:10.410Z,18.15
2017-01-16T01:36:10.347Z,18.25
2017-01-16T01:37:10.286Z,18.15
2017-01-16T01:38:10.222Z,18.25
2017-01-16T01:39:10.164Z,18.05
2017-01-16T01:40:10.097Z,18.15
2017-01-16T01:41:10.033Z,18.44
2017-01-16T01:42:10.222Z,18.15
2017-01-16T01:43:09.912Z,18.15
2017-01-16T01:44:09.848Z,18.25
2017-01-16T01:45:09.789Z,18.15
2017-01-16T01:46:09.723Z,18.15
2017-01-16T01:47:09.663Z,18.15
2017-01-16T01:48:09.599Z,18.44
2017-01-16T01:49:09.538Z,18.34
2017-01-16T01:50:09.476Z,18.54
2017-01-16T01:51:09.414Z,18.63
2017-01-16T01:52:09.350Z,18.44
2017-01-16T01:53:09.287Z,18.44
2017-01-16T01:54:09.227Z,18.44
2017-01-16T01:55:09.170Z,18.44
2017-01-16T01:56:09.103Z,18.54
2017-01-16T01:57:09.041Z,18.73
2017-01-16T01:58:08.979Z,18.73
2017-01-16T01:59:08.917Z,18.73
2017-01-16T02:00:08.854Z,18.63
2017-01-16T02:01:08.802Z,18.63
2017-01-16T02:02:08.733Z,18.73
2017-01-16T02:03:08.668Z,18.63
2017-01-16T02:04:08.611Z,18.82
2017-01-16T02:05:08.544Z,18.73
2017-01-16T02:06:08.483Z,18.34
2017-01-16T02:07:08.421Z,18.44
2017-01-16T02:08:08.359Z,18.44
2017-01-16T02:09:08.298Z,18.82
2017-01-16T02:10:08.240Z,18.44
2017-01-16T02:11:08.180Z,18.25
2017-01-16T02:12:08.113Z,18.73
2017-01-16T02:13:08.254Z,18.34
2017-01-16T02:14:07.986Z,18.44
2017-01-16T02:15:07.927Z,18.44
2017-01-16T02:16:07.866Z,18.44
2017-01-16T02:17:07.800Z,18.54
2017-01-16T02:18:07.742Z,18.44
2017-01-16T02:19:07.677Z,18.44
2017-01-16T02:20:07.616Z,18.54
2017-01-16T02:21:07.553Z,18.82
2017-01-16T02:22:07.492Z,18.63
2017-01-16T02:23:07.431Z,18.44
2017-01-16T02:24:07.367Z,18.73
2017-01-16T02:25:07.304Z,18.63
2017-01-16T02:26:07.245Z,18.73
2017-01-16T02:27:07.183Z,18.73
2017-01-16T02:28:07.120Z,18.63
2017-01-16T02:29:07.057Z,18.63
2017-01-16T02:30:06.999Z,18.82
2017-01-16T02:31:06.939Z,18.63
2017-01-16T02:32:06.872Z,18.63
2017-01-16T02:33:06.814Z,18.63
2017-01-16T02:34:06.750Z,18.73
2017-01-16T02:35:06.688Z,18.63
2017-01-16T02:36:06.628Z,18.73
2017-01-16T02:37:06.564Z,18.63
2017-01-16T02:38:06.503Z,18.63
2017-01-16T02:39:06.441Z,18.54
2017-01-16T02:40:06.378Z,18.73
2017-01-16T02:41:06.317Z,18.44
2017-01-16T02:42:06.254Z,18.73
2017-01-16T02:43:06.193Z,18.44
2017-01-16T02:44:06.522Z,18.25
2017-01-16T02:45:06.068Z,18.34
2017-01-16T02:46:06.009Z,18.63
2017-01-16T02:47:05.944Z,18.54
2017-01-16T02:48:05.883Z,18.15
2017-01-16T02:49:05.819Z,18.15
2017-01-16T02:50:05.760Z,18.25
2017-01-16T02:51:05.708Z,18.15
2017-01-16T02:52:05.773Z,18.25
2017-01-16T02:53:05.966Z,18.25
2017-01-16T02:54:05.510Z,17.96
2017-01-16T02:55:05.449Z,18.05
2017-01-16T02:56:05.387Z,18.05
2017-01-16T02:57:05.327Z,18.05
2017-01-16T02:58:05.264Z,18.05
2017-01-16T02:59:05.206Z,18.05
2017-01-16T03:00:05.140Z,18.05
2017-01-16T03:01:05.078Z,18.15
2017-01-16T03:02:05.019Z,17.96
2017-01-16T03:03:04.954Z,18.05
2017-01-16T03:04:04.894Z,18.15
2017-01-16T03:05:04.833Z,18.15
2017-01-16T03:06:04.769Z,18.15
2017-01-16T03:07:04.706Z,18.25
2017-01-16T03:08:04.663Z,18.25
2017-01-16T03:09:04.582Z,18.15
2017-01-16T03:10:04.522Z,18.25
2017-01-16T03:11:04.458Z,18.25
2017-01-16T03:12:04.397Z,18.15
2017-01-16T03:13:04.335Z,18.15
2017-01-16T03:14:04.274Z,18.15
2017-01-16T03:15:04.212Z,18.25
2017-01-16T03:16:04.150Z,18.34
2017-01-16T03:17:04.093Z,18.34
2017-01-16T03:18:04.025Z,18.25
2017-01-16T03:19:03.962Z,18.25
2017-01-16T03:20:03.903Z,18.25
2017-01-16T03:21:03.838Z,18.25
2017-01-16T03:22:03.787Z,18.34
2017-01-16T03:23:03.714Z,18.34
2017-01-16T03:24:03.654Z,18.44
2017-01-16T03:25:03.591Z,18.34
2017-01-16T03:26:03.528Z,18.34
2017-01-16T03:27:03.469Z,18.34
2017-01-16T03:28:03.405Z,18.44
2017-01-16T03:29:03.343Z,18.54
2017-01-16T03:30:03.281Z,18.34
2017-01-16T03:31:03.218Z,18.34
2017-01-16T03:32:03.156Z,18.44
2017-01-16T03:33:03.096Z,18.44
2017-01-16T03:34:03.032Z,18.44
2017-01-16T03:35:02.971Z,18.34
2017-01-16T03:36:02.911Z,18.44
2017-01-16T03:37:02.845Z,18.44
2017-01-16T03:38:02.786Z,18.44
2017-01-16T03:39:02.722Z,18.34
2017-01-16T03:40:02.663Z,18.34
2017-01-16T03:41:02.600Z,18.34
2017-01-16T03:42:02.539Z,18.34
2017-01-16T03:43:02.474Z,18.34
2017-01-16T03:44:02.412Z,18.54
2017-01-16T03:45:02.349Z,18.44
2017-01-16T03:46:02.293Z,18.44
2017-01-16T03:47:02.226Z,18.34
2017-01-16T03:48:02.166Z,18.44
2017-01-16T03:49:02.102Z,18.54
2017-01-16T03:50:02.042Z,18.54
2017-01-16T03:51:01.977Z,18.54
2017-01-16T03:52:01.915Z,18.54
2017-01-16T03:53:01.863Z,18.54
2017-01-16T03:54:01.794Z,18.44
2017-01-16T03:55:01.730Z,18.63
2017-01-16T03:56:01.704Z,18.34
2017-01-16T03:57:01.604Z,18.44
2017-01-16T03:58:01.546Z,18.54
2017-01-16T03:59:01.482Z,18.34
2017-01-16T04:00:01.420Z,18.54
2017-01-16T04:01:01.358Z,18.63
2017-01-16T04:02:01.295Z,18.63
2017-01-16T04:03:01.235Z,18.44
2017-01-16T04:04:01.170Z,18.63
2017-01-16T04:05:01.115Z,18.63
2017-01-16T04:06:01.250Z,18.54
2017-01-16T04:07:00.984Z,18.63
2017-01-16T04:08:00.922Z,18.34
2017-01-16T04:09:00.860Z,18.44
2017-01-16T04:10:00.800Z,18.54
2017-01-16T04:11:00.739Z,18.54
2017-01-16T04:12:00.676Z,18.63
2017-01-16T04:13:00.613Z,18.54
2017-01-16T04:14:00.551Z,18.54
2017-01-16T04:15:00.512Z,18.44
2017-01-16T04:16:00.438Z,18.54
2017-01-16T04:17:00.376Z,18.44
2017-01-16T04:18:00.329Z,18.54
2017-01-16T04:19:00.241Z,18.34
2017-01-16T04:20:00.188Z,18.54
2017-01-16T04:21:00.116Z,18.54
2017-01-16T04:22:00.052Z,18.54
2017-01-16T04:22:59.992Z,18.34
2017-01-16T04:23:59.929Z,18.63
2017-01-16T04:24:59.867Z,18.63
2017-01-16T04:25:59.805Z,18.54
2017-01-16T04:26:59.743Z,18.15
2017-01-16T04:27:59.682Z,18.05
2017-01-16T04:28:59.619Z,18.05
2017-01-16T04:29:59.557Z,18.05
2017-01-16T04:30:59.494Z,17.86
2017-01-16T04:31:59.431Z,18.05
2017-01-16T04:32:59.370Z,17.76
2017-01-16T04:33:59.307Z,17.57
2017-01-16T04:34:59.250Z,17.28
2017-01-16T04:35:59.183Z,17.57
2017-01-16T04:36:59.121Z,17.47
2017-01-16T04:37:59.059Z,16.89
2017-01-16T04:38:58.997Z,17.09
2017-01-16T04:39:58.933Z,17.28
2017-01-16T04:40:58.885Z,17.09
2017-01-16T04:41:58.813Z,17.47
2017-01-16T04:42:58.747Z,16.89
2017-01-16T04:43:58.716Z,16.89
2017-01-16T04:44:58.624Z,16.61
2017-01-16T04:45:58.564Z,16.51
2017-01-16T04:46:58.500Z,16.51
2017-01-16T04:47:58.439Z,16.61
2017-01-16T04:48:58.375Z,16.51
2017-01-16T04:49:58.313Z,16.31
2017-01-16T04:50:58.253Z,15.93
2017-01-16T04:51:58.189Z,15.93
2017-01-16T04:52:58.127Z,16.03
2017-01-16T04:53:58.066Z,15.93
2017-01-16T04:54:58.005Z,15.93
2017-01-16T04:55:57.941Z,16.12
2017-01-16T04:56:57.880Z,16.12
2017-01-16T04:57:57.819Z,16.12
2017-01-16T04:58:57.756Z,15.93
2017-01-16T04:59:57.692Z,16.12
2017-01-16T05:00:57.634Z,16.03
2017-01-16T05:01:57.569Z,16.12
2017-01-16T05:02:57.508Z,15.64
2017-01-16T05:03:57.446Z,15.64
2017-01-16T05:04:57.381Z,15.55
2017-01-16T05:05:57.323Z,15.64
2017-01-16T05:06:57.259Z,15.45
2017-01-16T05:07:57.200Z,15.93
2017-01-16T05:08:57.135Z,15.64
2017-01-16T05:09:57.073Z,15.55
2017-01-16T05:10:57.012Z,15.73
2017-01-16T05:11:56.950Z,15.64
2017-01-16T05:12:56.888Z,15.64
2017-01-16T05:13:56.826Z,15.64
2017-01-16T05:14:56.764Z,15.35
2017-01-16T05:15:56.702Z,15.35
2017-01-16T05:16:56.642Z,15.45
2017-01-16T05:17:56.581Z,15.25
2017-01-16T05:18:56.518Z,15.25
2017-01-16T05:19:56.456Z,15.16
2017-01-16T05:20:56.393Z,15.16
2017-01-16T05:21:56.334Z,15.45
2017-01-16T05:22:56.271Z,15.16
2017-01-16T05:23:56.211Z,15.16
2017-01-16T05:24:56.147Z,14.97
2017-01-16T05:25:56.084Z,15.07
2017-01-16T05:26:56.036Z,14.87
2017-01-16T05:27:55.960Z,14.97
2017-01-16T05:28:55.899Z,15.35
2017-01-16T05:29:56.229Z,14.97
2017-01-16T05:30:55.774Z,14.97
2017-01-16T05:31:55.713Z,15.35
2017-01-16T05:32:55.653Z,15.36
2017-01-16T05:33:55.592Z,14.87
2017-01-16T05:34:55.533Z,15.06
2017-01-16T05:35:55.468Z,15.16
2017-01-16T05:36:55.407Z,14.97
2017-01-16T05:37:55.344Z,15.06
2017-01-16T05:38:55.281Z,15.16
2017-01-16T05:39:55.218Z,14.77
2017-01-16T05:40:55.159Z,14.97
2017-01-16T05:41:55.096Z,15.16
2017-01-16T05:42:55.033Z,15.25
2017-01-16T05:43:54.972Z,14.87
2017-01-16T05:44:54.911Z,14.87
2017-01-16T05:45:54.848Z,14.97
2017-01-16T05:46:54.787Z,15.17
2017-01-16T05:47:54.731Z,15.16
2017-01-16T05:48:54.664Z,15.16
2017-01-16T05:49:54.604Z,15.26
2017-01-16T05:50:54.540Z,15.25
2017-01-16T05:51:54.478Z,15.35
2017-01-16T05:52:54.419Z,15.25
2017-01-16T05:53:54.355Z,15.36
2017-01-16T05:54:54.292Z,15.25
2017-01-16T05:55:54.230Z,15.35
2017-01-16T05:56:54.168Z,15.17
2017-01-16T05:57:54.107Z,15.45
2017-01-16T05:58:54.047Z,15.16
2017-01-16T05:59:53.984Z,15.25
2017-01-16T06:00:53.921Z,14.97
2017-01-16T06:01:53.860Z,14.77
2017-01-16T06:02:53.802Z,14.97
2017-01-16T06:03:53.735Z,14.87
2017-01-16T06:04:53.674Z,14.97
2017-01-16T06:05:53.612Z,15.25
2017-01-16T06:06:53.548Z,15.45
2017-01-16T06:07:53.488Z,15.25
2017-01-16T06:08:53.425Z,15.06
2017-01-16T06:09:53.365Z,15.07
2017-01-16T06:10:53.303Z,15.07
2017-01-16T06:11:53.246Z,14.97
2017-01-16T06:12:53.177Z,15.07
2017-01-16T06:13:53.122Z,15.07
2017-01-16T06:14:53.054Z,14.67
2017-01-16T06:15:52.992Z,14.39
2017-01-16T06:16:52.933Z,14.39
2017-01-16T06:17:52.869Z,14.39
2017-01-16T06:18:52.805Z,14.68
2017-01-16T06:19:52.748Z,14.77
2017-01-16T06:20:52.683Z,14.87
2017-01-16T06:21:52.622Z,14.77
2017-01-16T06:22:52.561Z,14.59
2017-01-16T06:23:52.499Z,14.67
2017-01-16T06:24:52.436Z,14.67
2017-01-16T06:25:52.375Z,14.48
2017-01-16T06:26:52.336Z,14.67
2017-01-16T06:27:52.251Z,14.48
2017-01-16T06:28:52.189Z,14.58
2017-01-16T06:29:52.124Z,14.19
2017-01-16T06:30:52.063Z,14.39
2017-01-16T06:31:52.002Z,14.59
2017-01-16T06:32:51.939Z,14.48
2017-01-16T06:33:51.876Z,14.39
2017-01-16T06:34:51.818Z,14.19
2017-01-16T06:35:51.754Z,14.19
2017-01-16T06:36:51.692Z,14.29
2017-01-16T06:37:51.630Z,14.19
2017-01-16T06:38:51.570Z,14
2017-01-16T06:39:51.505Z,14.09
2017-01-16T06:40:51.445Z,14
2017-01-16T06:41:51.381Z,13.81
2017-01-16T06:42:51.323Z,13.9
2017-01-16T06:43:51.256Z,14
2017-01-16T06:44:51.194Z,13.9
2017-01-16T06:45:51.136Z,13.81
2017-01-16T06:46:51.079Z,13.81
2017-01-16T06:47:51.012Z,13.51
2017-01-16T06:48:50.946Z,13.71
2017-01-16T06:49:50.886Z,13.61
2017-01-16T06:50:50.823Z,13.81
2017-01-16T06:51:50.764Z,13.71
2017-01-16T06:52:50.701Z,13.61
2017-01-16T06:53:50.637Z,13.61
2017-01-16T06:54:50.577Z,13.61
2017-01-16T06:55:50.517Z,13.61
2017-01-16T06:56:50.451Z,13.61
2017-01-16T06:57:50.390Z,13.81
2017-01-16T06:58:50.328Z,13.61
2017-01-16T06:59:50.267Z,13.71
2017-01-16T07:00:50.205Z,13.61
2017-01-16T07:01:50.141Z,13.71
2017-01-16T07:02:50.078Z,13.81
2017-01-16T07:03:50.019Z,13.81
2017-01-16T07:04:49.960Z,13.71
2017-01-16T07:05:49.897Z,13.81
2017-01-16T07:06:49.831Z,13.42
2017-01-16T07:07:49.769Z,13.51
2017-01-16T07:08:49.707Z,13.81
2017-01-16T07:09:49.645Z,13.32
2017-01-16T07:10:49.581Z,13.61
2017-01-16T07:11:49.520Z,13.32
2017-01-16T07:12:49.457Z,13.42
2017-01-16T07:13:49.397Z,13.32
2017-01-16T07:14:49.332Z,13.23
2017-01-16T07:15:49.271Z,13.23
2017-01-16T07:16:49.207Z,13.51
2017-01-16T07:17:49.145Z,13.71
2017-01-16T07:18:49.084Z,13.61
2017-01-16T07:19:49.054Z,13.61
2017-01-16T07:20:48.960Z,13.23
2017-01-16T07:21:48.896Z,13.61
2017-01-16T07:22:48.836Z,13.51
2017-01-16T07:23:48.779Z,13.23
2017-01-16T07:24:48.708Z,13.23
2017-01-16T07:25:48.649Z,13.23
2017-01-16T07:26:48.587Z,13.23
2017-01-16T07:27:48.524Z,13.23
2017-01-16T07:28:48.461Z,13.23
2017-01-16T07:29:48.400Z,13.23
2017-01-16T07:30:48.337Z,13.32
2017-01-16T07:31:48.275Z,13.03
2017-01-16T07:32:48.212Z,13.03
2017-01-16T07:33:48.151Z,13.32
2017-01-16T07:34:48.088Z,12.93
2017-01-16T07:35:48.029Z,13.23
2017-01-16T07:36:47.966Z,13.32
2017-01-16T07:37:47.901Z,13.23
2017-01-16T07:38:47.840Z,13.32
2017-01-16T07:39:47.776Z,13.13
2017-01-16T07:40:47.714Z,12.93
2017-01-16T07:41:47.653Z,13.03
2017-01-16T07:42:47.590Z,12.93
2017-01-16T07:43:47.529Z,13.03
2017-01-16T07:44:47.466Z,12.84
2017-01-16T07:45:47.424Z,13.13
2017-01-16T07:46:47.362Z,13.03
2017-01-16T07:47:47.280Z,13.03
2017-01-16T07:48:47.217Z,12.93
2017-01-16T07:49:47.171Z,13.03
2017-01-16T07:50:47.091Z,12.93
2017-01-16T07:51:47.037Z,13.03
2017-01-16T07:52:46.968Z,13.13
2017-01-16T07:53:46.908Z,13.03
2017-01-16T07:54:46.842Z,13.03
2017-01-16T07:55:46.783Z,13.23
2017-01-16T07:56:46.720Z,13.03
2017-01-16T07:57:46.656Z,12.74
2017-01-16T07:58:46.594Z,12.84
2017-01-16T07:59:46.534Z,12.84
2017-01-16T08:00:46.477Z,13.13
2017-01-16T08:01:46.409Z,12.74
2017-01-16T08:02:46.348Z,12.93
2017-01-16T08:03:46.284Z,12.93
2017-01-16T08:04:46.221Z,12.74
2017-01-16T08:05:46.162Z,12.93
2017-01-16T08:06:46.103Z,12.93
2017-01-16T08:07:46.035Z,12.74
2017-01-16T08:08:45.973Z,13.03
2017-01-16T08:09:45.913Z,12.93
2017-01-16T08:10:45.852Z,12.74
2017-01-16T08:11:45.790Z,13.03
2017-01-16T08:12:45.723Z,12.93
2017-01-16T08:13:45.661Z,12.84
2017-01-16T08:14:45.599Z,12.74
2017-01-16T08:15:45.540Z,12.84
2017-01-16T08:16:45.474Z,12.55
2017-01-16T08:17:45.412Z,12.65
2017-01-16T08:18:45.355Z,12.55
2017-01-16T08:19:45.316Z,12.55
2017-01-16T08:20:45.310Z,12.65
2017-01-16T08:21:45.165Z,12.65
2017-01-16T08:22:45.105Z,12.65
2017-01-16T08:23:45.042Z,12.84
2017-01-16T08:24:44.981Z,12.65
2017-01-16T08:25:44.923Z,12.74
2017-01-16T08:26:44.854Z,12.65
2017-01-16T08:27:44.794Z,12.55
2017-01-16T08:28:44.732Z,12.74
2017-01-16T08:29:44.670Z,12.74
2017-01-16T08:30:44.607Z,12.65
2017-01-16T08:31:44.544Z,12.65
2017-01-16T08:32:44.487Z,12.65
2017-01-16T08:33:44.422Z,12.93
2017-01-16T08:34:44.361Z,12.84
2017-01-16T08:35:44.300Z,12.84
2017-01-16T08:36:44.238Z,13.51
2017-01-16T08:37:44.176Z,13.23
2017-01-16T08:38:44.122Z,13.42
2017-01-16T08:39:44.059Z,13.81
2017-01-16T08:40:43.992Z,14.2
2017-01-16T08:41:43.942Z,14.67
2017-01-16T08:42:43.872Z,14.39
2017-01-16T08:43:43.805Z,14.48
2017-01-16T08:44:43.745Z,15.16
2017-01-16T08:45:43.683Z,15.06
2017-01-16T08:46:43.622Z,15.16
2017-01-16T08:47:43.556Z,15.26
2017-01-16T08:48:43.499Z,15.65
2017-01-16T08:49:43.434Z,15.83
2017-01-16T08:50:43.374Z,15.74
2017-01-16T08:51:43.317Z,15.73
2017-01-16T08:52:43.253Z,15.74
2017-01-16T08:53:43.191Z,15.74
2017-01-16T08:54:43.129Z,15.84
2017-01-16T08:55:43.064Z,15.94
2017-01-16T08:56:43.005Z,16.23
2017-01-16T08:57:42.944Z,16.03
2017-01-16T08:58:42.892Z,16.03
2017-01-16T08:59:42.838Z,16.03
2017-01-16T09:00:42.757Z,16.23
2017-01-16T09:01:42.698Z,15.84
2017-01-16T09:02:42.635Z,16.23
2017-01-16T09:03:42.575Z,16.61
2017-01-16T09:04:42.510Z,16.32
2017-01-16T09:05:42.451Z,16.23
2017-01-16T09:06:42.386Z,16.61
2017-01-16T09:07:42.326Z,16.42
2017-01-16T09:08:42.262Z,16.13
2017-01-16T09:09:42.203Z,15.84
2017-01-16T09:10:42.139Z,15.74
2017-01-16T09:11:42.078Z,15.65
2017-01-16T09:12:42.027Z,14.68
2017-01-16T09:13:41.958Z,14.78
2017-01-16T09:14:41.920Z,14.68
2017-01-16T09:15:41.838Z,14.59
2017-01-16T09:16:41.774Z,14.59
2017-01-16T09:17:41.708Z,14.59
2017-01-16T09:18:41.651Z,14.59
2017-01-16T09:19:41.587Z,14.39
2017-01-16T09:20:41.524Z,14.39
2017-01-16T09:21:41.461Z,14.39
2017-01-16T09:22:41.400Z,14.2
2017-01-16T09:23:41.339Z,14.39
2017-01-16T09:24:41.279Z,14.39
2017-01-16T09:25:41.220Z,14.49
2017-01-16T09:26:41.153Z,14.59
2017-01-16T09:27:41.093Z,14.29
2017-01-16T09:28:41.423Z,14.29
2017-01-16T09:29:41.013Z,14.59
2017-01-16T09:30:40.908Z,15.55
2017-01-16T09:31:40.843Z,15.74
2017-01-16T09:32:40.783Z,15.65
2017-01-16T09:33:40.722Z,15.65
2017-01-16T09:34:40.865Z,16.13
2017-01-16T09:35:40.597Z,17
2017-01-16T09:36:40.925Z,16.9
2017-01-16T09:37:40.473Z,16.9
2017-01-16T09:38:40.414Z,16.9
2017-01-16T09:39:40.351Z,16.9
2017-01-16T09:40:40.290Z,17.19
2017-01-16T09:41:40.238Z,17
2017-01-16T09:42:40.163Z,17.68
2017-01-16T09:43:40.104Z,17.97
2017-01-16T09:44:40.065Z,18.06
2017-01-16T09:45:39.978Z,18.64
2017-01-16T09:46:40.192Z,18.16
2017-01-16T09:47:39.868Z,18.84
2017-01-16T09:48:39.792Z,18.64
2017-01-16T09:49:39.732Z,18.84
2017-01-16T09:50:39.668Z,19.03
2017-01-16T09:51:39.605Z,19.03
2017-01-16T09:52:39.542Z,18.84
2017-01-16T09:53:39.487Z,19.12
2017-01-16T09:54:39.421Z,19.03
2017-01-16T09:55:39.363Z,19.32
2017-01-16T09:56:39.298Z,19.32
2017-01-16T09:57:39.237Z,19.22
2017-01-16T09:58:39.177Z,19.42
2017-01-16T09:59:39.116Z,19.8
2017-01-16T10:00:39.050Z,19.7
2017-01-16T10:01:38.988Z,19.7
2017-01-16T10:02:38.927Z,19.79
2017-01-16T10:03:38.866Z,20.19
2017-01-16T10:04:38.805Z,20.28
2017-01-16T10:05:38.741Z,20.19
2017-01-16T10:06:38.681Z,20.28
2017-01-16T10:07:38.631Z,20.38
2017-01-16T10:08:38.557Z,20.28
2017-01-16T10:09:38.493Z,20.67
2017-01-16T10:10:38.433Z,20.48
2017-01-16T10:11:38.393Z,20.57
2017-01-16T10:12:38.311Z,20.77
2017-01-16T10:13:38.248Z,21.06
2017-01-16T10:14:38.185Z,20.96
2017-01-16T10:15:38.124Z,21.06
2017-01-16T10:16:38.064Z,21.64
2017-01-16T10:17:38.001Z,21.15
2017-01-16T10:18:37.942Z,21.44
2017-01-16T10:19:37.877Z,21.44
2017-01-16T10:20:37.818Z,21.15
2017-01-16T10:21:37.752Z,21.54
2017-01-16T10:22:37.693Z,21.73
2017-01-16T10:23:37.630Z,21.64
2017-01-16T10:24:37.569Z,21.73
2017-01-16T10:25:37.515Z,21.83
2017-01-16T10:26:37.448Z,21.73
2017-01-16T10:27:37.387Z,21.73
2017-01-16T10:28:37.322Z,22.22
2017-01-16T10:29:37.264Z,22.31
2017-01-16T10:30:37.201Z,22.41
2017-01-16T10:31:37.531Z,22.6
2017-01-16T10:32:37.091Z,22.41
2017-01-16T10:33:37.016Z,22.6
2017-01-16T10:34:36.955Z,22.6
2017-01-16T10:35:36.893Z,22.5
2017-01-16T10:36:36.833Z,22.6
2017-01-16T10:37:36.767Z,22.6
2017-01-16T10:38:36.715Z,22.8
2017-01-16T10:39:36.647Z,22.99
2017-01-16T10:40:36.583Z,22.99
2017-01-16T10:41:36.525Z,22.99
2017-01-16T10:42:36.466Z,23.08
2017-01-16T10:43:36.402Z,22.89
2017-01-16T10:44:36.339Z,23.66
2017-01-16T10:45:36.276Z,23.28
2017-01-16T10:46:36.215Z,23.28
2017-01-16T10:47:36.161Z,23.18
2017-01-16T10:48:36.092Z,23.28
2017-01-16T10:49:36.059Z,23.18
2017-01-16T10:50:36.346Z,23.38
2017-01-16T10:51:35.908Z,23.38
2017-01-16T10:52:35.847Z,23.76
2017-01-16T10:53:35.786Z,23.47
2017-01-16T10:54:35.723Z,23.57
2017-01-16T10:55:35.662Z,23.38
2017-01-16T10:56:35.602Z,23.57
2017-01-16T10:57:35.549Z,23.76
2017-01-16T10:58:35.481Z,23.57
2017-01-16T10:59:35.417Z,23.86
2017-01-16T11:00:35.355Z,23.86
2017-01-16T11:01:35.296Z,23.96
2017-01-16T11:02:35.231Z,23.96
2017-01-16T11:03:35.170Z,23.96
2017-01-16T11:04:35.115Z,24.15
2017-01-16T11:05:35.048Z,24.34
2017-01-16T11:06:34.987Z,24.15
2017-01-16T11:07:34.930Z,24.44
2017-01-16T11:08:34.864Z,24.34
2017-01-16T11:09:34.806Z,24.24
2017-01-16T11:10:34.739Z,24.34
2017-01-16T11:11:34.748Z,24.63
2017-01-16T11:12:34.620Z,24.44
2017-01-16T11:13:34.555Z,24.82
2017-01-16T11:14:34.590Z,24.92
2017-01-16T11:15:34.513Z,24.92
2017-01-16T11:16:34.373Z,24.82
2017-01-16T11:17:34.311Z,24.92
2017-01-16T11:18:34.249Z,24.82
2017-01-16T11:19:34.187Z,25.12
2017-01-16T11:20:34.126Z,24.92
2017-01-16T11:21:34.066Z,25.21
2017-01-16T11:22:34.005Z,25.21
2017-01-16T11:23:33.943Z,25.12
2017-01-16T11:24:33.879Z,25.12
2017-01-16T11:25:33.831Z,25.31
2017-01-16T11:26:33.758Z,25.4
2017-01-16T11:27:33.697Z,25.4
2017-01-16T11:28:33.634Z,25.6
2017-01-16T11:29:33.572Z,25.6
2017-01-16T11:30:33.512Z,25.5
2017-01-16T11:31:33.453Z,25.7
2017-01-16T11:32:33.390Z,25.7
2017-01-16T11:33:33.327Z,25.71
2017-01-16T11:34:33.267Z,25.71
2017-01-16T11:35:33.206Z,25.79
2017-01-16T11:36:33.145Z,26.56
2017-01-16T11:37:33.082Z,26.67
2017-01-16T11:38:33.022Z,26.19
2017-01-16T11:39:32.963Z,23.29
2017-01-16T11:40:32.898Z,23.68
2017-01-16T11:41:33.228Z,22.13
2017-01-16T11:42:32.785Z,21.26
2017-01-16T11:43:33.104Z,21.26
2017-01-16T11:44:32.654Z,20.78
2017-01-16T11:45:32.617Z,20.78
2017-01-16T11:46:32.531Z,20.1
2017-01-16T11:47:32.468Z,20.19
2017-01-16T11:48:32.409Z,19.81
2017-01-16T11:49:32.345Z,19.71
2017-01-16T11:50:32.289Z,19.91
2017-01-16T11:51:32.224Z,19.52
2017-01-16T11:52:32.162Z,19.61
2017-01-16T11:53:32.104Z,19.71
2017-01-16T11:54:32.038Z,19.81
2017-01-16T11:55:31.981Z,19.81
2017-01-16T11:56:31.919Z,19.62
2017-01-16T11:57:31.856Z,19.71
2017-01-16T11:58:31.793Z,19.71
2017-01-16T11:59:31.732Z,19.71
2017-01-16T12:00:31.670Z,19.81
2017-01-16T12:01:31.607Z,19.71
2017-01-16T12:02:31.549Z,19.91
2017-01-16T12:03:31.489Z,19.71
2017-01-16T12:04:31.424Z,19.62
2017-01-16T12:05:31.365Z,19.62
2017-01-16T12:06:31.303Z,19.52
2017-01-16T12:07:31.244Z,19.71
2017-01-16T12:08:31.178Z,19.71
2017-01-16T12:09:31.120Z,19.52
2017-01-16T12:10:31.054Z,19.43
2017-01-16T12:11:30.997Z,19.62
2017-01-16T12:12:30.932Z,19.33
2017-01-16T12:13:30.870Z,19.33
2017-01-16T12:14:30.809Z,19.33
2017-01-16T12:15:30.747Z,19.43
2017-01-16T12:16:30.685Z,19.33
2017-01-16T12:17:30.626Z,19.43
2017-01-16T12:18:30.564Z,19.13
2017-01-16T12:19:30.499Z,19.04
2017-01-16T12:20:30.591Z,19.13
2017-01-16T12:21:30.377Z,19.23
2017-01-16T12:22:30.317Z,18.85
2017-01-16T12:23:30.254Z,18.85
2017-01-16T12:24:30.192Z,18.85
2017-01-16T12:25:30.132Z,19.04
2017-01-16T12:26:30.068Z,19.04
2017-01-16T12:27:30.007Z,19.04
2017-01-16T12:28:29.949Z,19.04
2017-01-16T12:29:29.926Z,18.85
2017-01-16T12:30:29.820Z,18.65
2017-01-16T12:31:30.150Z,18.65
2017-01-16T12:32:29.697Z,18.75
2017-01-16T12:33:29.638Z,18.55
2017-01-16T12:34:29.575Z,18.17
2017-01-16T12:35:29.515Z,18.17
2017-01-16T12:36:29.451Z,18.17
2017-01-16T12:37:29.387Z,18.07
2017-01-16T12:38:29.326Z,18.17
2017-01-16T12:39:29.266Z,18.26
2017-01-16T12:40:29.203Z,18.17
2017-01-16T12:41:29.139Z,18.17
2017-01-16T12:42:29.079Z,18.36
2017-01-16T12:43:29.018Z,18.75
2017-01-16T12:44:28.959Z,18.55
2017-01-16T12:45:28.895Z,18.36
2017-01-16T12:46:28.833Z,18.26
2017-01-16T12:47:28.773Z,18.17
2017-01-16T12:48:28.708Z,18.17
2017-01-16T12:49:28.647Z,18.17
2017-01-16T12:50:28.584Z,18.26
2017-01-16T12:51:28.524Z,18.26
2017-01-16T12:52:28.462Z,18.46
2017-01-16T12:53:28.400Z,18.55
2017-01-16T12:54:28.338Z,18.65